Time;durP1;ratioP1;P1;durP2;ratioP2;P2;SDS_P1;SDS_P2;PMS_P1;PMS_P2;Temp;Humidity;BMP_temperature;BMP_pressure;BME280_temperature;BME280_humidity;BME280_pressure;Samples;Min_cycle;Max_cycle;Signal;HPM_P1;HPM_P2
2022/08/02 00:00:47;;;;;;;3.12;2.60;;;;;;;21.40;56.94;100976.06;1627862;86;21573;-75
2022/08/02 00:03:13;;;;;;;3.35;2.92;;;;;;;21.38;56.98;100976.61;1627859;87;21105;-75
2022/08/02 00:05:40;;;;;;;3.30;2.33;;;;;;;21.36;57.03;100978.02;1627412;87;21080;-75
2022/08/02 00:08:06;;;;;;;2.60;2.40;;;;;;;21.35;57.11;100978.09;1619301;86;21099;-75
2022/08/02 00:10:32;;;;;;;2.70;2.50;;;;;;;21.33;57.18;100974.70;1601386;88;21128;-75
2022/08/02 00:12:59;;;;;;;8.55;2.50;;;;;;;21.32;57.19;100979.11;1633566;87;21047;-75
2022/08/02 00:15:26;;;;;;;;;;;;;;;21.31;57.30;100981.86;1625916;86;21146;-75
2022/08/02 00:17:52;;;;;;;5.15;2.30;;;;;;;21.28;57.58;100982.87;1617726;88;20232;-75
2022/08/02 00:20:18;;;;;;;3.25;2.40;;;;;;;21.26;57.37;100983.42;1627845;87;21132;-75
2022/08/02 00:22:45;;;;;;;3.67;2.47;;;;;;;21.23;57.40;100975.70;1627894;87;21145;-75
2022/08/02 00:25:11;;;;;;;2.30;2.12;;;;;;;21.22;57.46;100975.78;1627988;88;21486;-75
2022/08/02 00:27:37;;;;;;;2.25;2.05;;;;;;;21.20;57.51;100972.36;1627333;87;21095;-75
2022/08/02 00:30:05;;;;;;;2.37;2.08;;;;;;;21.19;57.59;100978.55;1617196;87;21136;-75
2022/08/02 00:32:32;;;;;;;2.40;2.20;;;;;;;21.18;57.63;100982.11;1584300;88;20941;-75
2022/08/02 00:34:58;;;;;;;3.47;2.08;;;;;;;21.18;57.69;100986.05;1589680;90;20956;-76
2022/08/02 00:37:25;;;;;;;2.20;2.00;;;;;;;21.18;57.75;100984.73;1587906;88;21147;-75
2022/08/02 00:39:51;;;;;;;6.62;2.67;;;;;;;21.17;57.79;100982.58;1587723;88;21087;-75
2022/08/02 00:42:18;;;;;;;2.60;2.40;;;;;;;21.17;57.83;100983.89;1589811;88;21674;-75
2022/08/02 00:44:44;;;;;;;3.37;2.10;;;;;;;21.15;57.85;100981.34;1587919;90;25106;-76
2022/08/02 00:47:11;;;;;;;5.00;2.00;;;;;;;21.13;57.95;100980.58;1588556;88;21098;-75
2022/08/02 00:49:37;;;;;;;4.25;2.52;;;;;;;21.14;57.98;100984.05;1588684;88;21109;-75
2022/08/02 00:52:05;;;;;;;2.65;2.10;;;;;;;21.12;58.06;100984.13;1587970;90;21359;-75
2022/08/02 00:54:32;;;;;;;3.80;2.27;;;;;;;21.11;58.08;100982.91;1587974;89;21143;-76
2022/08/02 00:56:58;;;;;;;2.10;1.90;;;;;;;21.10;58.14;100982.52;1601084;87;21053;-75
2022/08/02 00:59:24;;;;;;;3.40;2.25;;;;;;;21.11;58.17;100986.84;1635121;86;21167;-76
2022/08/02 01:01:51;;;;;;;3.83;2.42;;;;;;;21.10;58.23;100986.47;1607831;87;21059;-75
2022/08/02 01:04:17;;;;;;;;;;;;;;;21.08;58.31;100989.64;1637584;85;21179;-75
2022/08/02 01:06:44;;;;;;;3.08;1.90;;;;;;;21.05;58.48;100991.97;1634772;87;20511;-75
2022/08/02 01:09:11;;;;;;;3.02;2.00;;;;;;;21.05;58.38;100995.06;1634797;86;21087;-75
2022/08/02 01:11:38;;;;;;;4.20;2.02;;;;;;;21.05;58.43;101002.48;1641329;86;21067;-75
2022/08/02 01:14:13;;;;;;;4.87;2.05;;;;;;;21.04;58.45;101003.42;1635041;85;21134;-75
2022/08/02 01:16:45;;;;;;;4.72;2.00;;;;;;;21.04;58.50;101007.83;1635213;87;21516;-75
2022/08/02 01:19:36;;;;;;;2.52;2.30;;;;;;;21.00;58.55;101007.14;1634042;86;21096;-75
2022/08/02 01:22:32;;;;;;;3.10;2.25;;;;;;;20.97;58.61;101008.61;1635020;85;21131;-75
2022/08/02 01:25:16;;;;;;;2.50;2.27;;;;;;;20.94;58.69;101008.78;1635510;86;21099;-75
2022/08/02 01:28:09;;;;;;;3.65;2.22;;;;;;;20.89;58.72;101010.80;1634709;87;21031;-75
2022/08/02 01:30:39;;;;;;;2.40;2.17;;;;;;;20.87;58.80;101008.72;1587228;87;21115;-75
2022/08/02 01:33:09;;;;;;;2.20;1.98;;;;;;;20.86;58.87;101008.80;1599722;88;21596;-75
2022/08/02 01:35:43;;;;;;;4.25;2.10;;;;;;;20.85;58.93;101013.20;1560238;88;21271;-76
2022/08/02 01:38:15;;;;;;;2.45;2.25;;;;;;;20.83;58.99;101010.66;1597416;88;21104;-75
2022/08/02 01:40:44;;;;;;;3.90;1.90;;;;;;;20.83;59.05;101011.12;1562210;90;21490;-75
2022/08/02 01:43:12;;;;;;;3.08;1.87;;;;;;;20.81;59.10;101005.94;1578858;90;21450;-76
2022/08/02 01:45:41;;;;;;;2.10;1.90;;;;;;;20.78;59.14;101007.45;1574068;88;21185;-75
2022/08/02 01:48:09;;;;;;;4.05;2.33;;;;;;;20.77;59.23;101008.84;1555126;92;21708;-75
2022/08/02 01:50:37;;;;;;;2.72;2.35;;;;;;;20.76;59.25;101007.14;1555170;92;21121;-76
2022/08/02 01:53:08;;;;;;;2.65;2.37;;;;;;;20.72;59.33;101009.08;1567691;87;20970;-75
2022/08/02 01:55:52;;;;;;;2.17;1.92;;;;;;;20.70;59.41;101012.72;1543136;90;21173;-75
2022/08/02 01:58:24;;;;;;;2.62;2.37;;;;;;;20.65;59.46;101010.32;1592494;88;20980;-75
2022/08/02 02:00:52;;;;;;;5.87;2.17;;;;;;;20.62;59.26;101014.88;1588628;90;20960;-76
2022/08/02 02:03:23;;;;;;;2.37;2.20;;;;;;;20.59;59.60;101013.73;1646753;85;20976;-75
2022/08/02 02:05:54;;;;;;;2.20;2.00;;;;;;;20.56;59.62;101009.94;1648625;87;21363;-76
2022/08/02 02:08:28;;;;;;;2.40;2.20;;;;;;;20.52;59.64;101011.88;1646871;85;21138;-75
2022/08/02 02:10:56;;;;;;;2.33;2.12;;;;;;;20.49;59.74;101014.66;1651920;85;21024;-75
2022/08/02 02:13:27;;;;;;;2.52;1.95;;;;;;;20.45;59.78;101020.98;1647218;86;20976;-75
2022/08/02 02:15:55;;;;;;;2.58;2.22;;;;;;;20.42;59.83;101021.14;1643690;86;21110;-76
2022/08/02 02:18:25;;;;;;;2.95;2.45;;;;;;;20.36;59.91;101018.33;1647189;85;21071;-75
2022/08/02 02:20:52;;;;;;;2.40;2.20;;;;;;;20.32;59.96;101020.72;1646984;85;21119;-75
2022/08/02 02:23:20;;;;;;;2.45;2.25;;;;;;;20.29;60.04;101027.91;1647268;85;21112;-76
2022/08/02 02:25:47;;;;;;;2.52;2.33;;;;;;;20.26;60.09;101023.69;1647692;85;21063;-75
2022/08/02 02:28:21;;;;;;;3.17;2.83;;;;;;;20.23;60.17;101019.90;1647169;85;21087;-75
2022/08/02 02:30:52;;;;;;;2.58;2.00;;;;;;;20.23;60.24;101020.36;1646656;85;21095;-75
2022/08/02 02:33:21;;;;;;;2.42;2.22;;;;;;;20.20;60.28;101018.73;1646908;85;21055;-75
2022/08/02 02:35:50;;;;;;;3.45;2.12;;;;;;;20.15;60.34;101022.05;1647101;86;21083;-75
2022/08/02 02:38:19;;;;;;;2.77;2.58;;;;;;;20.13;60.42;101021.27;1647056;85;21062;-75
2022/08/02 02:40:48;;;;;;;4.15;2.52;;;;;;;20.11;60.50;101022.66;1647849;85;21538;-75
2022/08/02 02:43:16;;;;;;;4.30;2.33;;;;;;;20.10;60.53;101022.73;1656228;85;21075;-76
2022/08/02 02:45:44;;;;;;;4.75;2.27;;;;;;;20.08;60.61;101025.90;1646669;87;21102;-76
2022/08/02 02:48:13;;;;;;;2.02;1.87;;;;;;;20.05;60.67;101022.96;1647024;85;21144;-75
2022/08/02 02:50:42;;;;;;;7.22;2.50;;;;;;;20.04;60.74;101026.97;1648683;85;20896;-76
2022/08/02 02:53:11;;;;;;;4.35;2.60;;;;;;;20.02;60.78;101029.67;1647516;87;21078;-75
2022/08/02 02:55:39;;;;;;;3.08;2.80;;;;;;;19.99;60.88;101033.76;1649696;85;21139;-75
2022/08/02 02:58:07;;;;;;;2.83;2.50;;;;;;;19.99;60.93;101035.53;1641596;87;21130;-75
2022/08/02 03:03:24;;;;;;;3.02;2.60;;;;;;;19.96;61.06;101028.66;1644186;85;21068;-75
2022/08/02 03:05:51;;;;;;;3.02;2.67;;;;;;;19.93;61.13;101035.83;1655103;86;21119;-75
2022/08/02 03:08:18;;;;;;;3.35;2.70;;;;;;;19.93;61.14;101038.45;1633152;86;21640;-76
2022/08/02 03:10:45;;;;;;;3.30;2.60;;;;;;;19.89;61.25;101042.14;1643901;85;21700;-75
2022/08/02 03:13:12;;;;;;;6.97;3.20;;;;;;;19.89;61.28;101043.45;1635891;85;21158;-75
2022/08/02 03:15:41;;;;;;;3.27;3.00;;;;;;;19.86;61.35;101043.14;1657289;86;21526;-75
2022/08/02 03:18:08;;;;;;;5.28;3.15;;;;;;;19.84;61.42;101048.92;1635743;85;21099;-75
2022/08/02 03:20:34;;;;;;;4.90;3.10;;;;;;;19.80;61.50;101053.47;1623862;87;21113;-75
2022/08/02 03:23:01;;;;;;;4.10;2.67;;;;;;;19.79;61.56;101052.23;1635587;85;21409;-75
2022/08/02 03:25:27;;;;;;;2.85;2.62;;;;;;;19.77;61.58;101053.61;1635076;85;21093;-75
2022/08/02 03:27:54;;;;;;;4.80;3.00;;;;;;;19.73;61.67;101059.95;1635102;87;21145;-75
2022/08/02 03:30:23;;;;;;;3.70;3.10;;;;;;;19.73;61.72;101059.11;1628795;86;21104;-75
2022/08/02 03:32:49;;;;;;;3.00;2.75;;;;;;;19.72;61.79;101058.72;1635788;85;21573;-75
2022/08/02 03:35:18;;;;;;;3.00;2.80;;;;;;;19.71;61.84;101060.95;1635257;87;21023;-75
2022/08/02 03:37:46;;;;;;;4.35;2.75;;;;;;;19.72;61.88;101062.66;1611376;87;21171;-75
2022/08/02 03:40:13;;;;;;;3.45;2.55;;;;;;;19.70;61.95;101069.74;1635116;86;21087;-75
2022/08/02 03:42:41;;;;;;;3.83;3.15;;;;;;;19.71;62.01;101069.67;1635333;86;21185;-75
2022/08/02 03:45:09;;;;;;;3.42;2.85;;;;;;;19.71;62.07;101077.55;1634934;87;21090;-76
2022/08/02 03:47:37;;;;;;;4.55;3.35;;;;;;;19.70;62.10;101074.99;1636763;87;20967;-75
2022/08/02 03:50:08;;;;;;;3.72;3.42;;;;;;;19.70;62.17;101078.47;1635810;85;21074;-75
2022/08/02 03:52:36;;;;;;;3.72;3.42;;;;;;;19.71;62.24;101079.31;1634157;86;21139;-75
2022/08/02 03:55:03;;;;;;;4.25;3.20;;;;;;;19.69;62.31;101080.70;1607624;87;21178;-75
2022/08/02 03:57:29;;;;;;;;;;;;;;;19.69;62.38;101087.27;1635562;85;22599;-76
2022/08/02 03:59:56;;;;;;;5.62;3.58;;;;;;;19.68;62.73;101089.49;1614647;87;20217;-76
2022/08/02 04:02:22;;;;;;;3.52;3.10;;;;;;;19.67;62.55;101090.87;1607561;87;21468;-76
2022/08/02 04:04:49;;;;;;;4.90;3.47;;;;;;;19.65;62.53;101092.26;1611158;87;21443;-76
2022/08/02 04:07:15;;;;;;;3.60;3.25;;;;;;;19.66;62.62;101099.21;1617029;87;21560;-76
2022/08/02 04:09:42;;;;;;;3.67;3.37;;;;;;;19.64;62.63;101101.05;1649146;85;21059;-75
2022/08/02 04:12:09;;;;;;;3.60;3.30;;;;;;;19.64;62.74;101104.98;1652406;86;20999;-75
2022/08/02 04:14:35;;;;;;;;;;;;;;;19.62;62.81;101102.89;1639634;86;20992;-75
2022/08/02 04:17:07;;;;;;;6.65;3.70;;;;;;;19.60;63.17;101108.67;1637296;86;20484;-75
2022/08/02 04:19:53;;;;;;;4.05;3.75;;;;;;;19.61;62.91;101113.00;1637390;85;21115;-75
2022/08/02 04:22:36;;;;;;;4.80;3.77;;;;;;;19.58;62.93;101105.27;1636881;85;21598;-75
2022/08/02 04:25:07;;;;;;;4.78;3.12;;;;;;;19.60;62.95;101111.75;1637613;85;21170;-75
2022/08/02 04:27:36;;;;;;;5.45;3.17;;;;;;;19.61;63.06;101114.31;1637945;87;20975;-75
2022/08/02 04:30:06;;;;;;;3.58;3.10;;;;;;;19.60;63.09;101121.78;1637861;85;21111;-75
2022/08/02 04:32:34;;;;;;;5.92;3.52;;;;;;;19.58;63.19;101131.50;1637365;87;21078;-75
2022/08/02 04:35:01;;;;;;;4.22;3.80;;;;;;;19.57;63.22;101127.17;1637796;87;21075;-75
2022/08/02 04:37:27;;;;;;;3.70;3.10;;;;;;;19.56;63.29;101129.86;1637867;86;21095;-75
2022/08/02 04:39:54;;;;;;;4.37;3.58;;;;;;;19.54;63.34;101134.33;1636099;85;21007;-75
2022/08/02 04:42:24;;;;;;;7.90;3.47;;;;;;;19.53;63.44;101135.25;1640106;85;21150;-75
2022/08/02 04:44:53;;;;;;;3.75;3.40;;;;;;;19.54;63.49;101139.58;1637513;86;38871;-76
2022/08/02 04:47:21;;;;;;;5.65;2.90;;;;;;;19.55;63.56;101142.13;1637301;87;21071;-75
2022/08/02 04:49:47;;;;;;;5.12;3.37;;;;;;;19.57;63.63;101148.63;1639075;87;20986;-75
2022/08/02 04:52:14;;;;;;;6.80;3.33;;;;;;;19.61;63.69;101141.00;1637254;85;21111;-75
2022/08/02 04:54:40;;;;;;;6.35;3.45;;;;;;;19.69;63.72;101144.98;1644983;85;21095;-75
2022/08/02 04:57:53;;;;;;;3.58;2.75;;;;;;;19.75;63.73;101142.55;1636102;85;21582;-75
2022/08/02 04:59:35;;;;;;;6.92;3.20;;;;;;;19.81;63.77;101144.40;1629217;85;21116;-75
2022/08/02 05:02:01;;;;;;;5.53;3.02;;;;;;;19.89;63.75;101149.76;1640834;87;21050;-75
2022/08/02 05:04:27;;;;;;;5.65;2.90;;;;;;;19.95;63.83;101149.47;1640400;86;21437;-75
2022/08/02 05:06:54;;;;;;;3.85;2.95;;;;;;;20.00;63.82;101149.66;1640688;85;21091;-75
2022/08/02 05:09:20;;;;;;;4.80;2.85;;;;;;;20.06;63.88;101145.89;1641060;85;21074;-75
2022/08/02 05:11:46;;;;;;;3.33;2.95;;;;;;;20.14;63.92;101152.95;1631044;86;21085;-75
2022/08/02 05:14:13;;;;;;;7.95;3.00;;;;;;;20.19;63.87;101157.52;1640739;86;21503;-75
2022/08/02 05:16:39;;;;;;;3.70;2.62;;;;;;;20.22;63.87;101161.78;1640964;85;21053;-75
2022/08/02 05:19:05;;;;;;;6.12;2.70;;;;;;;20.23;63.92;101157.77;1640739;85;21010;-75
2022/08/02 05:21:32;;;;;;;5.08;2.30;;;;;;;20.26;63.83;101161.56;1640128;86;20963;-75
2022/08/02 05:23:59;;;;;;;9.35;2.55;;;;;;;20.30;63.88;101166.17;1641198;85;21686;-75
2022/08/02 05:26:25;;;;;;;5.37;2.12;;;;;;;20.40;63.96;101170.10;1628591;87;21936;-75
2022/08/02 05:28:51;;;;;;;6.65;2.40;;;;;;;20.70;63.94;101175.66;1630077;87;21642;-75
2022/08/02 05:31:18;;;;;;;8.53;3.02;;;;;;;21.09;63.88;101178.90;1624300;86;21059;-75
2022/08/02 05:33:45;;;;;;;8.25;2.45;;;;;;;21.57;63.88;101180.40;1608632;87;21751;-76
2022/08/02 05:36:12;;;;;;;5.70;2.30;;;;;;;22.12;63.68;101182.24;1610228;87;21580;-76
2022/08/02 05:38:39;;;;;;;6.72;2.25;;;;;;;22.51;63.57;101181.78;1661878;85;21562;-76
2022/08/02 05:41:06;;;;;;;6.60;2.25;;;;;;;23.02;63.44;101188.95;1643086;85;22121;-76
2022/08/02 05:43:32;;;;;;;;;;;;;;;23.45;63.26;101193.82;1642846;86;21675;-76
2022/08/02 05:45:58;;;;;;;10.98;2.72;;;;;;;23.79;62.68;101193.97;1634251;86;20213;-76
2022/08/02 05:48:25;;;;;;;8.70;2.35;;;;;;;23.88;62.90;101185.47;1647652;85;26531;-76
2022/08/02 05:50:54;;;;;;;;;;;;;;;24.23;62.89;101188.98;1639935;86;21064;-76
2022/08/02 05:53:32;;;;;;;6.12;1.92;;;;;;;24.63;61.88;101188.58;1629462;86;20784;-76
2022/08/02 05:56:31;;;;;;;5.70;2.20;;;;;;;24.90;62.31;101173.53;1629660;86;21075;-76
2022/08/02 05:59:27;;;;;;;4.00;1.85;;;;;;;25.18;61.86;101185.75;1608771;86;21704;-76
2022/08/02 06:01:57;;;;;;;;;;;;;;;25.54;61.61;101199.57;1631563;87;21081;-76
2022/08/02 06:04:31;;;;;;;6.03;1.82;;;;;;;25.89;60.71;101204.24;1637414;85;20471;-76
2022/08/02 06:07:05;;;;;;;6.12;1.80;;;;;;;26.24;61.20;101203.02;1647801;85;21630;-76
2022/08/02 06:09:33;;;;;;;10.68;1.72;;;;;;;26.50;60.81;101202.01;1651067;86;21595;-76
2022/08/02 06:12:01;;;;;;;4.22;1.70;;;;;;;26.81;60.59;101209.00;1651468;85;21515;-76
2022/08/02 06:14:33;;;;;;;5.15;2.40;;;;;;;27.07;60.11;101205.72;1640951;85;21634;-77
2022/08/02 06:17:05;;;;;;;5.45;2.05;;;;;;;27.30;59.77;101210.13;1637927;85;21104;-76
2022/08/02 06:19:36;;;;;;;4.90;1.60;;;;;;;27.54;59.32;101210.05;1636385;86;21562;-76
2022/08/02 06:22:14;;;;;;;8.85;1.90;;;;;;;27.77;58.97;101214.42;1617329;85;21123;-76
2022/08/02 06:24:49;;;;;;;5.10;1.77;;;;;;;27.97;58.28;101223.48;1637521;86;21567;-76
2022/08/02 06:27:16;;;;;;;3.33;1.97;;;;;;;28.00;57.93;101213.45;1636547;85;21083;-76
2022/08/02 06:29:43;;;;;;;9.25;1.92;;;;;;;28.07;57.60;101216.47;1637894;86;21719;-76
2022/08/02 06:32:10;;;;;;;6.85;2.47;;;;;;;28.15;57.30;101219.33;1637594;85;21475;-76
2022/08/02 06:34:37;;;;;;;;;;;;;;;28.25;56.84;101216.81;1641373;86;20916;-76
2022/08/02 06:37:32;;;;;;;5.42;1.85;;;;;;;28.42;56.09;101213.63;1638948;87;20443;-76
2022/08/02 06:40:07;;;;;;;12.37;1.82;;;;;;;28.65;56.38;101217.89;1634459;85;21587;-77
2022/08/02 06:43:04;;;;;;;5.70;2.22;;;;;;;28.95;55.69;101217.20;1633894;85;21647;-76
2022/08/02 06:45:33;;;;;;;7.17;2.15;;;;;;;29.14;55.19;101215.63;1637905;85;21583;-76
2022/08/02 06:48:00;;;;;;;6.33;2.15;;;;;;;29.23;54.72;101218.35;1637666;85;21082;-76
2022/08/02 06:50:27;;;;;;;6.37;1.82;;;;;;;29.35;54.43;101218.28;1637482;86;21075;-76
2022/08/02 06:52:53;;;;;;;5.87;2.10;;;;;;;29.59;53.88;101217.06;1637160;86;21111;-76
2022/08/02 06:55:20;;;;;;;4.35;1.52;;;;;;;29.72;53.29;101216.81;1636159;85;21069;-76
2022/08/02 06:57:47;;;;;;;7.30;2.02;;;;;;;29.84;52.94;101214.90;1636987;87;21060;-76
2022/08/02 07:00:14;;;;;;;6.53;1.80;;;;;;;29.90;52.34;101213.03;1637192;85;21538;-76
2022/08/02 07:02:40;;;;;;;5.28;1.65;;;;;;;30.08;51.99;101216.78;1650949;85;21082;-76
2022/08/02 07:05:08;;;;;;;;;;;;;;;30.24;51.53;101217.07;1639513;86;21126;-76
2022/08/02 07:07:34;;;;;;;8.20;1.92;;;;;;;30.43;50.69;101217.60;1637249;87;20609;-76
2022/08/02 07:10:01;;;;;;;7.28;1.92;;;;;;;30.51;50.95;101214.24;1656465;86;21670;-76
2022/08/02 07:12:30;;;;;;;2.92;1.50;;;;;;;30.54;50.38;101210.80;1648128;85;21176;-77
2022/08/02 07:15:00;;;;;;;2.90;1.27;;;;;;;30.71;50.24;101214.61;1624260;85;21560;-76
2022/08/02 07:17:27;;;;;;;8.23;1.70;;;;;;;31.02;49.69;101215.31;1637257;86;21074;-76
2022/08/02 07:19:54;;;;;;;4.65;1.50;;;;;;;31.10;49.02;101215.94;1653056;86;21071;-77
2022/08/02 07:22:22;;;;;;;7.03;1.85;;;;;;;31.34;48.63;101218.15;1653751;85;21611;-76
2022/08/02 07:24:50;;;;;;;4.90;1.50;;;;;;;31.51;48.32;101215.57;1649107;86;21123;-76
2022/08/02 07:27:16;;;;;;;2.02;1.20;;;;;;;31.66;47.82;101218.62;1652782;86;21111;-76
2022/08/02 07:29:43;;;;;;;6.60;2.08;;;;;;;31.64;47.12;101213.91;1656224;85;21027;-76
2022/08/02 07:32:09;;;;;;;5.67;2.05;;;;;;;31.54;46.80;101215.28;1644154;85;21131;-76
2022/08/02 07:34:36;;;;;;;6.47;1.50;;;;;;;31.63;46.20;101220.74;1656173;86;28659;-76
2022/08/02 07:37:02;;;;;;;5.67;1.90;;;;;;;31.95;46.01;101225.19;1645236;85;21090;-77
2022/08/02 07:39:28;;;;;;;;;;;;;;;32.41;45.41;101215.36;1656104;86;21119;-76
2022/08/02 07:41:55;;;;;;;4.67;1.75;;;;;;;32.62;43.96;101217.25;1645754;86;20150;-76
2022/08/02 07:44:22;;;;;;;;;;;;;;;32.64;44.52;101218.44;1640043;85;21500;-77
2022/08/02 07:46:48;;;;;;;6.08;2.15;;;;;;;32.49;43.50;101209.59;1638941;86;20212;-76
2022/08/02 07:49:17;;;;;;;;;;;;;;;32.26;43.97;101212.35;1642381;86;21071;-76
2022/08/02 07:51:46;;;;;;;5.30;1.85;;;;;;;32.13;43.94;101214.05;1637636;85;20223;-76
2022/08/02 07:54:13;;;;;;;4.53;1.45;;;;;;;32.08;43.47;101211.47;1650446;85;21058;-76
2022/08/02 07:56:39;;;;;;;7.22;1.98;;;;;;;32.03;42.73;101214.59;1654851;86;21079;-76
2022/08/02 07:59:06;;;;;;;4.03;1.60;;;;;;;31.88;42.38;101210.72;1657146;86;21111;-76
2022/08/02 08:01:32;;;;;;;7.80;1.77;;;;;;;31.82;41.88;101215.33;1645200;85;21040;-76
2022/08/02 08:03:59;;;;;;;4.55;1.55;;;;;;;31.85;41.67;101215.03;1643305;85;28814;-76
2022/08/02 08:06:25;;;;;;;3.10;1.75;;;;;;;31.97;41.15;101208.50;1642233;86;21083;-76
2022/08/02 08:08:52;;;;;;;3.95;1.85;;;;;;;31.99;39.86;101209.69;1634052;86;21069;-76
2022/08/02 08:11:18;;;;;;;5.28;1.55;;;;;;;31.85;40.28;101211.86;1657148;86;21068;-76
2022/08/02 08:13:44;;;;;;;5.22;1.60;;;;;;;31.93;40.12;101212.45;1637593;86;28788;-76
2022/08/02 08:16:11;;;;;;;4.65;1.35;;;;;;;32.03;39.94;101211.91;1643376;85;21087;-76
2022/08/02 08:18:38;;;;;;;3.98;2.05;;;;;;;32.07;39.64;101205.27;1529554;85;10000492;-76
2022/08/02 08:21:05;;;;;;;6.45;1.70;;;;;;;32.26;39.46;101205.66;1638399;86;20896;-76
2022/08/02 08:23:31;;;;;;;;;;;;;;;32.37;39.05;101208.62;1642092;86;20892;-76
2022/08/02 08:25:58;;;;;;;3.92;1.50;;;;;;;32.34;39.20;101203.07;1638925;86;20099;-76
2022/08/02 08:28:24;;;;;;;;;;;;;;;32.29;38.67;101209.87;1641226;85;21505;-76
2022/08/02 08:30:50;;;;;;;4.55;1.62;;;;;;;32.33;38.84;101204.56;1637424;86;20419;-76
2022/08/02 08:33:17;;;;;;;9.18;1.82;;;;;;;32.38;38.74;101205.79;1639065;86;21504;-76
2022/08/02 08:35:43;;;;;;;3.30;1.15;;;;;;;32.44;38.33;101205.69;1642448;85;20952;-76
2022/08/02 08:38:09;;;;;;;;;;;;;;;32.61;38.24;101201.33;1641531;85;20980;-76
2022/08/02 08:40:36;;;;;;;3.37;1.12;;;;;;;32.66;38.26;101195.86;1639010;85;20099;-76
2022/08/02 08:43:03;;;;;;;;;;;;;;;32.60;38.19;101198.31;1639375;85;22259;-76
2022/08/02 08:45:29;;;;;;;7.15;1.85;;;;;;;32.68;38.21;101195.70;1637304;85;20741;-76
2022/08/02 08:47:59;;;;;;;2.85;1.37;;;;;;;32.53;37.77;101202.94;1636442;85;20944;-76
2022/08/02 08:50:29;;;;;;;9.05;1.70;;;;;;;32.47;37.72;101200.03;1630846;85;20936;-76
2022/08/02 08:53:08;;;;;;;9.55;1.90;;;;;;;32.07;37.24;101203.09;1635056;86;21061;-76
2022/08/02 08:55:36;;;;;;;2.65;1.52;;;;;;;31.90;37.21;101201.56;1636922;86;21083;-76
2022/08/02 08:58:04;;;;;;;2.37;1.40;;;;;;;31.48;36.13;101203.83;1637401;86;21154;-76
2022/08/02 09:00:34;;;;;;;3.65;1.32;;;;;;;30.72;36.15;101205.62;1638791;85;21136;-76
2022/08/02 09:03:05;;;;;;;6.70;1.47;;;;;;;30.10;36.47;101200.63;1569583;85;5000670;-76
2022/08/02 09:05:35;;;;;;;5.78;1.87;;;;;;;29.76;36.35;101206.72;1561248;90;20942;-76
2022/08/02 09:08:02;;;;;;;4.20;1.45;;;;;;;29.19;35.91;101204.94;1586043;90;21174;-76
2022/08/02 09:10:36;;;;;;;4.33;1.60;;;;;;;28.65;36.02;101206.39;1624275;87;21670;-76
2022/08/02 09:13:28;;;;;;;2.87;1.25;;;;;;;28.16;35.95;101199.75;1618363;87;21103;-76
2022/08/02 09:16:03;;;;;;;7.87;2.40;;;;;;;27.84;36.15;101194.37;1610862;87;21110;-75
2022/08/02 09:18:35;;;;;;;;;;;;;;;27.64;36.12;101201.25;1613839;87;21097;-75
2022/08/02 09:21:07;;;;;;;6.65;1.40;;;;;;;27.44;36.27;101199.30;1612401;87;20226;-75
2022/08/02 09:23:39;;;;;;;6.42;1.27;;;;;;;27.27;36.06;101196.61;1614810;87;21071;-75
2022/08/02 09:26:09;;;;;;;3.98;1.40;;;;;;;27.11;36.12;101197.89;1612129;87;21143;-75
2022/08/02 09:28:39;;;;;;;3.58;1.40;;;;;;;26.97;36.08;101204.27;1612133;88;21071;-75
2022/08/02 09:31:12;;;;;;;4.22;1.37;;;;;;;26.86;36.20;101205.52;1612102;87;21107;-75
2022/08/02 09:33:42;;;;;;;3.12;1.70;;;;;;;26.76;36.22;101204.03;1612275;88;21111;-75
2022/08/02 09:36:15;;;;;;;3.87;1.10;;;;;;;26.72;36.24;101194.61;1612873;87;21087;-75
2022/08/02 09:38:58;;;;;;;6.20;1.50;;;;;;;26.67;36.28;101189.64;1611955;87;21533;-76
2022/08/02 09:41:27;;;;;;;4.55;1.42;;;;;;;26.60;36.25;101196.84;1620283;87;21111;-75
2022/08/02 09:43:56;;;;;;;4.15;1.20;;;;;;;26.41;36.34;101196.53;1622841;87;21604;-75
2022/08/02 09:46:29;;;;;;;6.95;1.80;;;;;;;26.31;36.48;101199.84;1636403;87;20932;-75
2022/08/02 09:49:05;;;;;;;6.62;1.50;;;;;;;26.28;36.56;101198.71;1614013;88;20897;-75
2022/08/02 09:51:35;;;;;;;3.10;1.52;;;;;;;26.32;36.64;101191.41;1614029;87;20948;-75
2022/08/02 09:54:05;;;;;;;7.78;1.80;;;;;;;26.33;36.69;101189.98;1611934;87;20929;-75
2022/08/02 09:56:57;;;;;;;5.12;1.77;;;;;;;26.28;36.71;101181.48;1614564;87;21383;-75
2022/08/02 09:59:25;;;;;;;3.72;1.15;;;;;;;26.29;36.86;101177.87;1613721;87;20954;-75
2022/08/02 10:01:54;;;;;;;3.50;1.40;;;;;;;26.33;36.91;101178.05;1620551;87;20952;-76
2022/08/02 10:04:24;;;;;;;3.45;1.35;;;;;;;26.31;36.87;101175.14;1618543;87;20939;-75
2022/08/02 10:06:52;;;;;;;2.65;1.10;;;;;;;26.24;36.89;101172.05;1626658;87;21062;-75
2022/08/02 10:09:20;;;;;;;5.85;1.42;;;;;;;26.11;36.93;101171.25;1595588;88;21001;-76
2022/08/02 10:11:47;;;;;;;4.53;1.05;;;;;;;25.92;36.98;101171.75;1589237;87;20976;-75
2022/08/02 10:14:13;;;;;;;3.83;1.25;;;;;;;25.75;37.11;101168.59;1615488;87;21035;-75
2022/08/02 10:16:42;;;;;;;5.25;1.32;;;;;;;25.72;37.23;101169.18;1616342;87;21114;-75
2022/08/02 10:19:09;;;;;;;4.45;1.10;;;;;;;25.73;37.29;101162.08;1616160;88;21670;-75
2022/08/02 10:21:57;;;;;;;5.37;1.27;;;;;;;25.72;37.47;101154.61;1604878;87;20975;-75
2022/08/02 10:24:30;;;;;;;2.35;1.07;;;;;;;25.73;37.41;101164.73;1618393;87;21086;-75
2022/08/02 10:26:58;;;;;;;5.22;1.10;;;;;;;25.70;37.47;101149.05;1618489;87;21174;-75
2022/08/02 10:29:37;;;;;;;4.03;1.57;;;;;;;25.85;37.51;101166.99;1615770;88;21091;-75
2022/08/02 10:32:14;;;;;;;3.98;1.45;;;;;;;25.93;37.61;101155.37;1625156;87;20976;-75
2022/08/02 10:34:46;;;;;;;2.27;1.10;;;;;;;26.01;37.68;101163.59;1623744;87;20920;-75
2022/08/02 10:37:14;;;;;;;3.65;1.40;;;;;;;26.10;37.71;101152.32;1617747;88;21090;-75
2022/08/02 10:39:44;;;;;;;2.83;1.10;;;;;;;26.16;37.64;101153.20;1615411;87;21117;-75
2022/08/02 10:42:12;;;;;;;2.30;1.25;;;;;;;26.21;37.80;101145.77;1612663;88;21106;-75
2022/08/02 10:44:39;;;;;;;2.92;1.30;;;;;;;26.24;37.86;101152.65;1619580;87;21749;-75
2022/08/02 10:47:22;;;;;;;3.85;1.32;;;;;;;26.28;37.87;101147.48;1616680;88;21175;-75
2022/08/02 10:49:56;;;;;;;5.00;1.20;;;;;;;26.28;37.88;101141.70;1615110;88;21127;-76
2022/08/02 10:52:32;;;;;;;3.08;1.55;;;;;;;26.24;37.96;101137.59;1628777;87;21067;-76
2022/08/02 10:55:02;;;;;;;3.62;1.52;;;;;;;26.20;37.90;101137.44;1587905;88;21176;-75
2022/08/02 10:57:32;;;;;;;7.35;1.65;;;;;;;26.21;38.07;101134.31;1578585;90;21115;-75
2022/08/02 11:00:12;;;;;;;3.67;1.35;;;;;;;26.15;37.95;101127.66;1587791;88;21157;-75
2022/08/02 11:02:45;;;;;;;5.83;1.20;;;;;;;25.99;38.07;101124.45;1587320;89;21128;-75
2022/08/02 11:05:31;;;;;;;4.97;1.10;;;;;;;25.98;38.23;101135.53;1636246;87;21075;-75
2022/08/02 11:07:58;;;;;;;3.77;1.20;;;;;;;26.06;38.23;101129.17;1606019;87;21108;-75
2022/08/02 11:10:29;;;;;;;5.90;1.57;;;;;;;26.09;38.24;101126.77;1601212;85;491369;-75
2022/08/02 11:13:14;;;;;;;6.35;1.65;;;;;;;26.09;37.95;101123.27;1658257;83;21119;-75
2022/08/02 11:16:05;;;;;;;3.65;1.10;;;;;;;26.15;38.36;101122.35;1628738;87;21617;-75
2022/08/02 11:18:59;;;;;;;5.45;1.12;;;;;;;26.23;38.36;101116.01;1647500;85;21627;-75
2022/08/02 11:21:33;;;;;;;3.65;1.05;;;;;;;26.28;38.37;101117.00;1654680;85;21006;-75
2022/08/02 11:24:32;;;;;;;6.72;1.02;;;;;;;26.35;38.38;101121.77;1650616;85;21090;-75
2022/08/02 11:27:01;;;;;;;3.10;1.00;;;;;;;26.39;38.54;101118.41;1610093;87;22158;-75
2022/08/02 11:29:42;;;;;;;7.75;1.05;;;;;;;26.47;38.43;101126.64;1620033;87;20986;-75
2022/08/02 11:32:22;;;;;;;2.67;1.32;;;;;;;26.54;38.39;101119.89;1616161;87;20952;-75
2022/08/02 11:34:53;;;;;;;4.72;1.07;;;;;;;26.56;38.36;101121.95;1616434;88;20973;-76
2022/08/02 11:37:35;;;;;;;2.65;1.17;;;;;;;26.58;38.41;101118.70;1612855;87;20920;-75
2022/08/02 11:40:04;;;;;;;2.42;0.98;;;;;;;26.53;38.25;101117.35;1652688;85;20975;-75
2022/08/02 11:42:39;;;;;;;4.00;1.20;;;;;;;26.42;38.32;101118.66;1671149;83;21094;-75
2022/08/02 11:45:08;;;;;;;2.87;1.10;;;;;;;26.43;38.43;101127.83;1657449;85;20927;-76